createdAt,value
2019-01-19T00:00:30.836Z,0.00
2019-01-19T00:01:30.839Z,0.00
2019-01-19T00:03:20.252Z,0.00
2019-01-19T00:04:20.242Z,0.00
2019-01-19T00:05:20.265Z,0.00
2019-01-19T00:06:20.218Z,0.00
2019-01-19T00:07:20.214Z,0.00
2019-01-19T00:08:20.258Z,0.00
2019-01-19T00:09:20.275Z,0.00
2019-01-19T00:10:20.181Z,0.00
2019-01-19T00:11:20.197Z,0.00
2019-01-19T00:12:20.171Z,0.00
2019-01-19T00:13:20.166Z,0.00
2019-01-19T00:14:20.142Z,0.00
2019-01-19T00:15:20.135Z,0.00
2019-01-19T00:16:20.114Z,0.00
2019-01-19T00:17:20.129Z,0.00
2019-01-19T00:18:20.111Z,0.00
2019-01-19T00:19:20.149Z,0.00
2019-01-19T00:20:20.078Z,0.00
2019-01-19T00:21:20.070Z,0.00
2019-01-19T00:22:20.120Z,0.00
2019-01-19T00:23:20.142Z,0.00
2019-01-19T00:24:20.036Z,0.00
2019-01-19T00:25:20.040Z,0.00
2019-01-19T00:26:20.082Z,0.00
2019-01-19T00:27:20.013Z,0.00
2019-01-19T00:28:20.005Z,0.00
2019-01-19T00:29:19.995Z,0.00
2019-01-19T00:30:19.973Z,0.00
2019-01-19T00:31:20.032Z,0.00
2019-01-19T00:32:19.964Z,0.00
2019-01-19T00:33:19.952Z,0.00
2019-01-19T00:34:19.937Z,0.00
2019-01-19T00:35:19.952Z,0.00
2019-01-19T00:36:19.933Z,0.00
2019-01-19T00:37:19.898Z,0.00
2019-01-19T00:38:19.889Z,0.00
2019-01-19T00:39:19.940Z,0.00
2019-01-19T00:40:19.866Z,0.00
2019-01-19T00:41:19.880Z,0.00
2019-01-19T00:42:19.848Z,0.00
2019-01-19T00:43:19.852Z,0.00
2019-01-19T00:44:19.826Z,0.00
2019-01-19T00:45:19.816Z,0.00
2019-01-19T00:46:19.806Z,0.00
2019-01-19T00:47:19.816Z,0.00
2019-01-19T00:48:19.835Z,0.00
2019-01-19T00:49:19.796Z,0.00
2019-01-19T00:50:19.773Z,0.00
2019-01-19T00:51:19.751Z,0.00
2019-01-19T00:52:19.744Z,0.00
2019-01-19T00:53:19.757Z,0.00
2019-01-19T00:54:19.732Z,0.00
2019-01-19T00:55:19.751Z,0.00
2019-01-19T00:56:19.704Z,0.00
2019-01-19T00:57:19.684Z,0.00
2019-01-19T00:58:19.681Z,0.00
2019-01-19T00:59:19.754Z,0.00
2019-01-19T01:00:19.670Z,0.00
2019-01-19T01:01:19.645Z,0.00
2019-01-19T01:02:19.639Z,0.00
2019-01-19T01:03:19.626Z,0.00
2019-01-19T01:04:19.648Z,0.00
2019-01-19T01:05:25.245Z,0.00
2019-01-19T01:06:20.590Z,0.00
2019-01-19T01:07:19.584Z,0.00
2019-01-19T01:08:19.584Z,0.00
2019-01-19T01:09:19.562Z,0.00
2019-01-19T01:10:19.557Z,0.00
2019-01-19T01:11:19.553Z,0.00
2019-01-19T01:12:19.597Z,0.00
2019-01-19T01:13:19.516Z,0.00
2019-01-19T01:14:19.522Z,0.00
2019-01-19T01:15:19.503Z,0.00
2019-01-19T01:16:19.503Z,0.00
2019-01-19T01:17:19.503Z,0.00
2019-01-19T01:18:19.500Z,0.00
2019-01-19T01:19:19.455Z,0.00
2019-01-19T01:20:19.445Z,0.00
2019-01-19T01:21:19.430Z,0.00
2019-01-19T01:22:19.526Z,0.00
2019-01-19T01:23:19.433Z,0.00
2019-01-19T01:24:19.413Z,0.00
2019-01-19T01:25:19.391Z,0.00
2019-01-19T01:26:19.372Z,0.00
2019-01-19T01:27:19.375Z,0.00
2019-01-19T01:28:19.368Z,0.00
2019-01-19T01:29:19.401Z,0.00
2019-01-19T01:30:19.331Z,0.00
2019-01-19T01:31:19.324Z,0.00
2019-01-19T01:32:19.318Z,0.00
2019-01-19T01:33:19.352Z,0.00
2019-01-19T01:34:19.296Z,0.00
2019-01-19T01:35:19.306Z,0.00
2019-01-19T01:36:19.269Z,0.00
2019-01-19T01:37:19.344Z,0.00
2019-01-19T01:38:19.312Z,0.00
2019-01-19T01:39:19.241Z,0.00
2019-01-19T01:40:19.238Z,0.00
2019-01-19T01:41:19.232Z,0.00
2019-01-19T01:42:19.206Z,0.00
2019-01-19T01:43:19.199Z,0.00
2019-01-19T01:44:19.254Z,44.00
2019-01-19T01:45:19.177Z,40.00
2019-01-19T01:46:19.161Z,0.00
2019-01-19T01:47:19.170Z,0.00
2019-01-19T01:48:19.172Z,0.00
2019-01-19T01:49:19.145Z,0.00
2019-01-19T01:50:19.123Z,0.00
2019-01-19T01:51:19.119Z,0.00
2019-01-19T01:52:19.098Z,0.00
2019-01-19T01:53:19.113Z,0.00
2019-01-19T01:54:19.079Z,0.00
2019-01-19T01:55:19.071Z,0.00
2019-01-19T01:56:19.065Z,0.00
2019-01-19T01:57:19.047Z,0.00
2019-01-19T01:58:19.059Z,0.00
2019-01-19T01:59:19.034Z,0.00
2019-01-19T02:00:19.017Z,0.00
2019-01-19T02:01:19.001Z,0.00
2019-01-19T02:02:19.001Z,0.00
2019-01-19T02:03:18.982Z,0.00
2019-01-19T02:04:18.974Z,0.00
2019-01-19T02:05:18.969Z,0.00
2019-01-19T02:06:18.947Z,0.00
2019-01-19T02:07:18.940Z,0.00
2019-01-19T02:08:18.931Z,0.00
2019-01-19T02:09:18.937Z,0.00
2019-01-19T02:10:18.911Z,0.00
2019-01-19T02:11:18.912Z,0.00
2019-01-19T02:12:18.889Z,0.00
2019-01-19T02:13:18.873Z,0.00
2019-01-19T02:14:18.931Z,0.00
2019-01-19T02:15:18.858Z,0.00
2019-01-19T02:16:18.844Z,0.00
2019-01-19T02:17:18.854Z,0.00
2019-01-19T02:18:18.822Z,0.00
2019-01-19T02:19:18.811Z,0.00
2019-01-19T02:20:18.803Z,0.00
2019-01-19T02:21:18.803Z,0.00
2019-01-19T02:22:18.791Z,0.00
2019-01-19T02:23:18.886Z,0.00
2019-01-19T02:24:18.755Z,0.00
2019-01-19T02:25:18.747Z,0.00
2019-01-19T02:26:18.756Z,0.00
2019-01-19T02:27:18.724Z,0.00
2019-01-19T02:28:18.714Z,0.00
2019-01-19T02:29:18.724Z,0.00
2019-01-19T02:30:18.714Z,0.00
2019-01-19T02:31:18.683Z,0.00
2019-01-19T02:32:18.676Z,0.00
2019-01-19T02:33:18.663Z,0.00
2019-01-19T02:34:18.677Z,0.00
2019-01-19T02:35:18.663Z,0.00
2019-01-19T02:36:18.634Z,0.00
2019-01-19T02:37:18.619Z,0.00
2019-01-19T02:38:18.605Z,0.00
2019-01-19T02:39:18.599Z,0.00
2019-01-19T02:40:18.627Z,0.00
2019-01-19T02:41:18.593Z,0.00
2019-01-19T02:42:18.564Z,0.00
2019-01-19T02:43:18.554Z,0.00
2019-01-19T02:44:18.567Z,0.00
2019-01-19T02:45:18.542Z,0.00
2019-01-19T02:46:18.533Z,0.00
2019-01-19T02:47:18.536Z,0.00
2019-01-19T02:48:18.497Z,0.00
2019-01-19T02:49:18.492Z,0.00
2019-01-19T02:50:18.478Z,0.00
2019-01-19T02:51:18.472Z,0.00
2019-01-19T02:52:18.475Z,0.00
2019-01-19T02:53:18.466Z,0.00
2019-01-19T02:54:18.446Z,0.00
2019-01-19T02:55:18.431Z,0.00
2019-01-19T02:56:18.419Z,0.00
2019-01-19T02:57:18.409Z,0.00
2019-01-19T02:58:18.405Z,0.00
2019-01-19T02:59:18.428Z,0.00
2019-01-19T03:00:18.376Z,0.00
2019-01-19T03:01:18.374Z,0.00
2019-01-19T03:02:18.358Z,0.00
2019-01-19T03:03:18.349Z,0.00
2019-01-19T03:04:18.344Z,0.00
2019-01-19T03:05:18.360Z,0.00
2019-01-19T03:06:18.317Z,0.00
2019-01-19T03:07:18.322Z,0.00
2019-01-19T03:08:18.306Z,0.00
2019-01-19T03:09:18.288Z,0.00
2019-01-19T03:10:18.272Z,0.00
2019-01-19T03:11:18.286Z,0.00
2019-01-19T03:12:18.257Z,0.00
2019-01-19T03:13:18.241Z,0.00
2019-01-19T03:14:18.232Z,0.00
2019-01-19T03:15:18.219Z,0.00
2019-01-19T03:16:18.211Z,0.00
2019-01-19T03:17:18.215Z,0.00
2019-01-19T03:18:18.195Z,0.00
2019-01-19T03:19:18.181Z,0.00
2019-01-19T03:20:18.171Z,0.00
2019-01-19T03:21:18.163Z,0.00
2019-01-19T03:22:19.527Z,0.00
2019-01-19T03:23:18.243Z,0.00
2019-01-19T03:24:18.127Z,0.00
2019-01-19T03:25:18.117Z,0.00
2019-01-19T03:26:18.101Z,0.00
2019-01-19T03:27:18.108Z,0.00
2019-01-19T03:28:18.089Z,0.00
2019-01-19T03:29:18.134Z,0.00
2019-01-19T03:30:18.078Z,0.00
2019-01-19T03:31:18.052Z,0.00
2019-01-19T03:32:18.083Z,0.00
2019-01-19T03:33:18.048Z,0.00
2019-01-19T03:34:18.021Z,0.00
2019-01-19T03:35:18.027Z,0.00
2019-01-19T03:36:18.005Z,0.00
2019-01-19T03:37:17.990Z,0.00
2019-01-19T03:38:17.983Z,0.00
2019-01-19T03:39:17.977Z,0.00
2019-01-19T03:40:17.958Z,0.00
2019-01-19T03:41:17.977Z,0.00
2019-01-19T03:42:17.934Z,0.00
2019-01-19T03:43:17.924Z,0.00
2019-01-19T03:44:17.926Z,0.00
2019-01-19T03:45:17.911Z,0.00
2019-01-19T03:46:17.895Z,0.00
2019-01-19T03:47:17.980Z,0.00
2019-01-19T03:48:17.873Z,0.00
2019-01-19T03:49:17.869Z,0.00
2019-01-19T03:50:17.861Z,0.00
2019-01-19T03:51:17.854Z,0.00
2019-01-19T03:52:17.832Z,0.00
2019-01-19T03:53:17.845Z,0.00
2019-01-19T03:54:17.812Z,0.00
2019-01-19T03:55:17.812Z,0.00
2019-01-19T03:56:17.796Z,0.00
2019-01-19T03:57:17.786Z,0.00
2019-01-19T03:58:17.769Z,0.00
2019-01-19T03:59:17.804Z,0.00
2019-01-19T04:00:17.759Z,0.00
2019-01-19T04:01:17.790Z,0.00
2019-01-19T04:02:17.737Z,0.00
2019-01-19T04:03:17.728Z,0.00
2019-01-19T04:04:17.712Z,0.00
2019-01-19T04:05:17.716Z,0.00
2019-01-19T04:06:17.693Z,0.00
2019-01-19T04:07:17.686Z,0.00
2019-01-19T04:08:17.695Z,0.00
2019-01-19T04:09:17.674Z,0.00
2019-01-19T04:10:17.653Z,0.00
2019-01-19T04:11:17.655Z,0.00
2019-01-19T04:12:17.625Z,0.00
2019-01-19T04:13:17.660Z,0.00
2019-01-19T04:14:17.611Z,0.00
2019-01-19T04:15:17.604Z,0.00
2019-01-19T04:16:17.582Z,0.00
2019-01-19T04:17:17.594Z,0.00
2019-01-19T04:18:17.564Z,0.00
2019-01-19T04:19:17.559Z,0.00
2019-01-19T04:20:17.544Z,0.00
2019-01-19T04:21:17.539Z,0.00
2019-01-19T04:22:17.522Z,0.00
2019-01-19T04:23:17.556Z,0.00
2019-01-19T04:24:17.505Z,0.00
2019-01-19T04:25:17.490Z,0.00
2019-01-19T04:26:17.488Z,0.00
2019-01-19T04:27:17.474Z,0.00
2019-01-19T04:28:17.462Z,0.00
2019-01-19T04:29:17.471Z,0.00
2019-01-19T04:30:17.450Z,0.00
2019-01-19T04:31:17.440Z,0.00
2019-01-19T04:32:17.423Z,0.00
2019-01-19T04:33:17.431Z,0.00
2019-01-19T04:34:17.395Z,0.00
2019-01-19T04:35:17.402Z,0.00
2019-01-19T04:36:21.714Z,0.00
2019-01-19T04:37:17.376Z,0.00
2019-01-19T04:38:17.362Z,0.00
2019-01-19T04:39:17.346Z,0.00
2019-01-19T04:40:17.350Z,0.00
2019-01-19T04:41:17.359Z,0.00
2019-01-19T04:42:17.346Z,0.00
2019-01-19T04:43:17.311Z,0.00
2019-01-19T04:44:17.295Z,0.00
2019-01-19T04:45:17.296Z,0.00
2019-01-19T04:46:17.280Z,0.00
2019-01-19T04:47:17.283Z,0.00
2019-01-19T04:48:17.260Z,0.00
2019-01-19T04:49:17.269Z,0.00
2019-01-19T04:50:17.237Z,0.00
2019-01-19T04:51:17.231Z,0.00
2019-01-19T04:52:17.218Z,0.00
2019-01-19T04:53:17.221Z,0.00
2019-01-19T04:54:17.216Z,0.00
2019-01-19T04:55:17.197Z,0.00
2019-01-19T04:56:17.174Z,0.00
2019-01-19T04:57:17.167Z,0.00
2019-01-19T04:58:17.146Z,0.00
2019-01-19T04:59:17.163Z,0.00
2019-01-19T05:00:17.934Z,0.00
2019-01-19T05:01:17.146Z,0.00
2019-01-19T05:02:17.117Z,0.00
2019-01-19T05:03:17.099Z,0.00
2019-01-19T05:04:17.085Z,0.00
2019-01-19T05:05:17.114Z,0.00
2019-01-19T05:06:17.069Z,0.00
2019-01-19T05:07:17.063Z,0.00
2019-01-19T05:08:17.047Z,0.00
2019-01-19T05:09:17.046Z,0.00
2019-01-19T05:10:17.029Z,0.00
2019-01-19T05:11:17.033Z,0.00
2019-01-19T05:12:17.015Z,0.00
2019-01-19T05:13:17.009Z,0.00
2019-01-19T05:14:16.990Z,0.00
2019-01-19T05:15:16.987Z,0.00
2019-01-19T05:16:16.973Z,0.00
2019-01-19T05:17:16.977Z,0.00
2019-01-19T05:18:16.945Z,0.00
2019-01-19T05:19:16.979Z,0.00
2019-01-19T05:20:16.933Z,0.00
2019-01-19T05:21:16.928Z,0.00
2019-01-19T05:22:16.904Z,0.00
2019-01-19T05:23:16.944Z,0.00
2019-01-19T05:24:16.923Z,0.00
2019-01-19T05:25:16.871Z,0.00
2019-01-19T05:26:16.862Z,0.00
2019-01-19T05:27:16.862Z,0.00
2019-01-19T05:28:16.846Z,0.00
2019-01-19T05:29:16.855Z,0.00
2019-01-19T05:30:16.822Z,0.00
2019-01-19T05:31:16.815Z,0.00
2019-01-19T05:32:16.801Z,0.00
2019-01-19T05:33:16.794Z,0.00
2019-01-19T05:34:16.820Z,0.00
2019-01-19T05:35:16.791Z,0.00
2019-01-19T05:36:16.766Z,0.00
2019-01-19T05:37:16.756Z,0.00
2019-01-19T05:38:16.742Z,0.00
2019-01-19T05:39:16.730Z,0.00
2019-01-19T05:40:16.774Z,0.00
2019-01-19T05:41:16.728Z,0.00
2019-01-19T05:42:16.695Z,0.00
2019-01-19T05:43:16.686Z,0.00
2019-01-19T05:44:16.676Z,0.00
2019-01-19T05:45:16.670Z,0.00
2019-01-19T05:46:21.407Z,0.00
2019-01-19T05:47:17.669Z,0.00
2019-01-19T05:48:16.636Z,0.00
2019-01-19T05:49:16.625Z,0.00
2019-01-19T05:50:16.618Z,0.00
2019-01-19T05:51:16.610Z,0.00
2019-01-19T05:52:16.591Z,0.00
2019-01-19T05:53:16.614Z,0.00
2019-01-19T05:54:16.583Z,0.00
2019-01-19T05:55:16.568Z,0.00
2019-01-19T05:56:16.554Z,0.00
2019-01-19T05:57:16.553Z,0.00
2019-01-19T05:58:16.539Z,0.00
2019-01-19T05:59:16.543Z,0.00
2019-01-19T06:00:16.538Z,0.00
2019-01-19T06:01:16.507Z,0.00
2019-01-19T06:02:16.491Z,0.00
2019-01-19T06:03:16.499Z,0.00
2019-01-19T06:04:16.486Z,0.00
2019-01-19T06:05:16.514Z,0.00
2019-01-19T06:06:16.448Z,0.00
2019-01-19T06:07:16.457Z,0.00
2019-01-19T06:08:16.459Z,0.00
2019-01-19T06:09:16.441Z,0.00
2019-01-19T06:10:16.405Z,0.00
2019-01-19T06:11:16.420Z,0.00
2019-01-19T06:12:16.421Z,0.00
2019-01-19T06:13:16.372Z,0.00
2019-01-19T06:14:16.369Z,0.00
2019-01-19T06:15:16.378Z,0.00
2019-01-19T06:16:16.359Z,0.00
2019-01-19T06:17:16.366Z,0.00
2019-01-19T06:18:16.326Z,0.00
2019-01-19T06:19:16.316Z,0.00
2019-01-19T06:20:16.322Z,0.00
2019-01-19T06:21:16.293Z,0.00
2019-01-19T06:22:16.284Z,0.00
2019-01-19T06:23:16.296Z,0.00
2019-01-19T06:24:16.299Z,0.00
2019-01-19T06:25:16.300Z,0.00
2019-01-19T06:26:16.247Z,0.00
2019-01-19T06:27:16.236Z,0.00
2019-01-19T06:28:16.220Z,0.00
2019-01-19T06:29:16.233Z,0.00
2019-01-19T06:30:16.204Z,0.00
2019-01-19T06:31:16.204Z,0.00
2019-01-19T06:32:16.188Z,0.00
2019-01-19T06:33:16.175Z,0.00
2019-01-19T06:34:16.156Z,0.00
2019-01-19T06:35:16.166Z,0.00
2019-01-19T06:36:16.142Z,0.00
2019-01-19T06:37:16.133Z,0.00
2019-01-19T06:38:16.126Z,0.00
2019-01-19T06:39:16.113Z,0.00
2019-01-19T06:40:16.151Z,0.00
2019-01-19T06:41:16.144Z,0.00
2019-01-19T06:42:16.081Z,0.00
2019-01-19T06:43:16.071Z,0.00
2019-01-19T06:44:16.060Z,0.00
2019-01-19T06:45:16.051Z,4.00
2019-01-19T06:46:16.038Z,4.00
2019-01-19T06:47:16.044Z,0.00
2019-01-19T06:48:16.025Z,4.00
2019-01-19T06:49:16.017Z,0.00
2019-01-19T06:50:15.997Z,4.00
2019-01-19T06:51:15.986Z,4.00
2019-01-19T06:53:13.129Z,8.00
2019-01-19T06:54:13.087Z,8.00
2019-01-19T06:55:13.081Z,12.00
2019-01-19T06:56:13.061Z,8.00
2019-01-19T06:57:13.061Z,12.00
2019-01-19T06:58:13.046Z,16.00
2019-01-19T06:59:17.399Z,12.00
2019-01-19T07:00:13.023Z,16.00
2019-01-19T07:01:13.011Z,16.00
2019-01-19T07:02:13.001Z,24.00
2019-01-19T07:03:12.997Z,24.00
2019-01-19T07:04:12.988Z,28.00
2019-01-19T07:05:12.991Z,32.00
2019-01-19T07:06:12.959Z,32.00
2019-01-19T07:07:12.956Z,36.00
2019-01-19T07:08:12.939Z,40.00
2019-01-19T07:09:12.936Z,44.00
2019-01-19T07:10:12.919Z,48.00
2019-01-19T07:11:12.930Z,52.00
2019-01-19T07:12:12.910Z,60.00
2019-01-19T07:13:12.885Z,60.00
2019-01-19T07:14:12.894Z,68.00
2019-01-19T07:15:12.871Z,72.00
2019-01-19T07:16:12.866Z,80.00
2019-01-19T07:17:12.862Z,84.00
2019-01-19T07:18:12.839Z,92.00
2019-01-19T07:19:12.830Z,96.00
2019-01-19T07:20:12.823Z,104.00
2019-01-19T07:21:12.811Z,104.00
2019-01-19T07:22:12.802Z,116.00
2019-01-19T07:23:12.824Z,120.00
2019-01-19T07:24:12.782Z,128.00
2019-01-19T07:25:12.769Z,140.00
2019-01-19T07:26:12.766Z,152.00
2019-01-19T07:27:12.753Z,160.00
2019-01-19T07:28:12.746Z,164.00
2019-01-19T07:29:12.769Z,176.00
2019-01-19T07:30:12.727Z,180.00
2019-01-19T07:31:12.714Z,188.00
2019-01-19T07:32:12.701Z,196.00
2019-01-19T07:33:12.692Z,212.00
2019-01-19T07:34:12.689Z,224.00
2019-01-19T07:35:12.712Z,228.00
2019-01-19T07:36:12.688Z,240.00
2019-01-19T07:37:12.647Z,252.00
2019-01-19T07:38:12.640Z,256.00
2019-01-19T07:39:12.638Z,268.00
2019-01-19T07:40:12.663Z,280.00
2019-01-19T07:41:12.631Z,296.00
2019-01-19T07:42:12.602Z,312.00
2019-01-19T07:43:12.580Z,328.00
2019-01-19T07:44:12.580Z,344.00
2019-01-19T07:45:12.567Z,364.00
2019-01-19T07:46:12.561Z,1020.00
2019-01-19T07:47:12.599Z,1072.00
2019-01-19T07:48:12.541Z,1148.00
2019-01-19T07:49:12.525Z,1284.00
2019-01-19T07:50:12.514Z,1520.00
2019-01-19T07:51:12.503Z,1632.00
2019-01-19T07:52:12.503Z,1412.00
2019-01-19T07:53:12.512Z,1396.00
2019-01-19T07:54:12.474Z,1456.00
2019-01-19T07:55:12.467Z,1388.00
2019-01-19T07:56:12.454Z,1440.00
2019-01-19T07:57:12.453Z,1716.00
2019-01-19T07:58:12.445Z,2048.00
2019-01-19T07:59:12.458Z,2144.00
2019-01-19T08:00:12.432Z,2232.00
2019-01-19T08:01:12.400Z,2544.00
2019-01-19T08:02:12.394Z,2868.00
2019-01-19T08:03:12.403Z,3096.00
2019-01-19T08:04:12.375Z,3272.00
2019-01-19T08:05:12.378Z,2980.00
2019-01-19T08:06:12.355Z,2544.00
2019-01-19T08:07:17.195Z,2576.00
2019-01-19T08:08:13.333Z,2636.00
2019-01-19T08:09:12.344Z,2556.00
2019-01-19T08:10:12.308Z,2688.00
2019-01-19T08:11:12.419Z,3136.00
2019-01-19T08:12:12.296Z,3312.00
2019-01-19T08:13:12.277Z,3016.00
2019-01-19T08:14:12.271Z,2532.00
2019-01-19T08:15:12.266Z,2440.00
2019-01-19T08:16:12.267Z,2720.00
2019-01-19T08:17:12.258Z,2920.00
2019-01-19T08:18:12.226Z,2456.00
2019-01-19T08:19:12.245Z,1908.00
2019-01-19T08:20:12.204Z,1900.00
2019-01-19T08:21:12.201Z,1968.00
2019-01-19T08:22:12.184Z,2044.00
2019-01-19T08:23:12.194Z,1972.00
2019-01-19T08:24:12.177Z,2160.00
2019-01-19T08:25:12.158Z,2716.00
2019-01-19T08:26:12.143Z,2404.00
2019-01-19T08:27:12.137Z,1996.00
2019-01-19T08:28:12.121Z,2004.00
2019-01-19T08:29:12.124Z,2060.00
2019-01-19T08:30:12.098Z,2244.00
2019-01-19T08:31:12.108Z,2448.00
2019-01-19T08:32:12.079Z,2624.00
2019-01-19T08:33:12.345Z,2620.00
2019-01-19T08:34:12.062Z,2400.00
2019-01-19T08:35:12.060Z,2356.00
2019-01-19T08:36:12.037Z,2332.00
2019-01-19T08:37:12.220Z,2568.00
2019-01-19T08:38:12.573Z,2804.00
2019-01-19T08:39:12.005Z,5316.00
2019-01-19T08:40:12.006Z,8920.00
2019-01-19T08:41:12.023Z,9312.00
2019-01-19T08:42:11.977Z,8508.00
2019-01-19T08:43:11.981Z,8684.00
2019-01-19T08:44:11.996Z,11872.00
2019-01-19T08:45:11.942Z,8480.00
2019-01-19T08:46:11.932Z,6312.00
2019-01-19T08:47:11.942Z,5876.00
2019-01-19T08:48:11.909Z,6348.00
2019-01-19T08:49:11.924Z,10456.00
2019-01-19T08:50:11.903Z,13024.00
2019-01-19T08:51:11.878Z,13920.00
2019-01-19T08:52:11.877Z,14432.00
2019-01-19T08:53:11.884Z,14112.00
2019-01-19T08:54:11.849Z,13952.00
2019-01-19T08:55:11.858Z,14560.00
2019-01-19T08:56:11.876Z,14496.00
2019-01-19T08:57:11.819Z,14176.00
2019-01-19T08:58:11.842Z,14912.00
2019-01-19T08:59:11.816Z,15264.00
2019-01-19T09:00:11.817Z,15872.00
2019-01-19T09:01:11.786Z,16448.00
2019-01-19T09:02:11.794Z,16704.00
2019-01-19T09:03:11.763Z,16896.00
2019-01-19T09:04:11.749Z,17312.00
2019-01-19T09:05:11.759Z,17312.00
2019-01-19T09:06:11.724Z,17184.00
2019-01-19T09:07:11.724Z,17472.00
2019-01-19T09:08:11.705Z,16864.00
2019-01-19T09:09:11.692Z,17056.00
2019-01-19T09:10:11.679Z,17984.00
2019-01-19T09:11:11.692Z,18176.00
2019-01-19T09:12:11.657Z,18752.00
2019-01-19T09:13:11.670Z,18816.00
2019-01-19T09:14:11.660Z,18720.00
2019-01-19T09:15:11.628Z,18560.00
2019-01-19T09:16:11.613Z,19488.00
2019-01-19T09:17:11.993Z,17760.00
2019-01-19T09:18:11.662Z,16928.00
2019-01-19T09:19:11.593Z,16064.00
2019-01-19T09:20:11.678Z,15520.00
2019-01-19T09:21:11.686Z,16576.00
2019-01-19T09:22:11.626Z,17504.00
2019-01-19T09:23:11.654Z,18688.00
2019-01-19T09:24:11.534Z,16992.00
2019-01-19T09:25:11.533Z,15936.00
2019-01-19T09:26:11.514Z,17056.00
2019-01-19T09:27:11.507Z,17120.00
2019-01-19T09:28:11.491Z,18144.00
2019-01-19T09:29:11.520Z,19008.00
2019-01-19T09:30:11.485Z,19360.00
2019-01-19T09:31:11.472Z,20000.00
2019-01-19T09:32:11.499Z,19872.00
2019-01-19T09:33:11.447Z,19040.00
2019-01-19T09:34:11.428Z,19776.00
2019-01-19T09:35:11.437Z,21056.00
2019-01-19T09:36:11.415Z,21760.00
2019-01-19T09:37:11.399Z,21536.00
2019-01-19T09:38:11.424Z,20672.00
2019-01-19T09:39:11.379Z,21280.00
2019-01-19T09:40:11.360Z,22272.00
2019-01-19T09:41:11.366Z,22016.00
2019-01-19T09:42:11.343Z,21344.00
2019-01-19T09:43:11.345Z,21856.00
2019-01-19T09:44:11.326Z,21856.00
2019-01-19T09:45:11.316Z,21600.00
2019-01-19T09:46:11.301Z,21632.00
2019-01-19T09:47:11.306Z,21696.00
2019-01-19T09:48:11.295Z,21952.00
2019-01-19T09:49:11.307Z,22336.00
2019-01-19T09:50:11.254Z,22528.00
2019-01-19T09:51:11.246Z,22880.00
2019-01-19T09:52:11.236Z,23200.00
2019-01-19T09:53:11.282Z,23488.00
2019-01-19T09:54:11.321Z,23840.00
2019-01-19T09:55:11.211Z,24064.00
2019-01-19T09:56:11.192Z,24096.00
2019-01-19T09:57:11.182Z,24352.00
2019-01-19T09:58:11.169Z,24000.00
2019-01-19T09:59:11.172Z,23936.00
2019-01-19T10:00:11.147Z,23872.00
2019-01-19T10:01:11.140Z,23936.00
2019-01-19T10:02:11.126Z,24096.00
2019-01-19T10:03:11.121Z,24512.00
2019-01-19T10:04:11.107Z,24608.00
2019-01-19T10:05:11.107Z,24576.00
2019-01-19T10:06:11.100Z,24352.00
2019-01-19T10:07:11.077Z,24416.00
2019-01-19T10:08:11.064Z,25472.00
2019-01-19T10:09:11.050Z,25600.00
2019-01-19T10:10:11.053Z,25504.00
2019-01-19T10:11:11.047Z,26720.00
2019-01-19T10:12:11.021Z,26688.00
2019-01-19T10:13:11.005Z,26048.00
2019-01-19T10:14:10.998Z,26624.00
2019-01-19T10:15:10.988Z,27616.00
2019-01-19T10:16:10.979Z,28480.00
2019-01-19T10:17:10.982Z,28864.00
2019-01-19T10:18:10.953Z,28320.00
2019-01-19T10:19:10.942Z,17728.00
2019-01-19T10:20:10.929Z,8368.00
2019-01-19T10:21:10.916Z,4696.00
2019-01-19T10:22:10.963Z,3200.00
2019-01-19T10:23:10.933Z,3120.00
2019-01-19T10:24:10.895Z,3072.00
2019-01-19T10:25:10.881Z,3044.00
2019-01-19T10:26:10.866Z,3012.00
2019-01-19T10:27:10.865Z,2984.00
2019-01-19T10:28:10.845Z,2968.00
2019-01-19T10:29:10.852Z,2948.00
2019-01-19T10:30:10.827Z,2912.00
2019-01-19T10:31:10.814Z,2896.00
2019-01-19T10:32:10.805Z,2888.00
2019-01-19T10:33:10.791Z,2884.00
2019-01-19T10:34:10.778Z,2872.00
2019-01-19T10:35:10.804Z,2872.00
2019-01-19T10:36:10.763Z,2860.00
2019-01-19T10:37:10.750Z,2844.00
2019-01-19T10:38:10.746Z,2828.00
2019-01-19T10:39:10.730Z,2812.00
2019-01-19T10:40:10.717Z,2812.00
2019-01-19T10:41:10.720Z,2808.00
2019-01-19T10:42:10.699Z,2796.00
2019-01-19T10:43:10.681Z,2784.00
2019-01-19T10:44:10.684Z,2768.00
2019-01-19T10:45:10.671Z,2760.00
2019-01-19T10:46:10.662Z,2752.00
2019-01-19T10:47:10.652Z,2740.00
2019-01-19T10:48:10.634Z,2724.00
2019-01-19T10:49:10.621Z,2700.00
2019-01-19T10:50:10.614Z,2696.00
2019-01-19T10:51:10.601Z,2680.00
2019-01-19T10:52:10.590Z,2664.00
2019-01-19T10:53:10.598Z,2648.00
2019-01-19T10:54:10.576Z,2640.00
2019-01-19T10:55:10.558Z,2612.00
2019-01-19T10:56:10.546Z,2604.00
2019-01-19T10:57:10.540Z,2596.00
2019-01-19T10:58:10.540Z,2592.00
2019-01-19T10:59:10.527Z,2588.00
2019-01-19T11:00:10.514Z,2568.00
2019-01-19T11:01:10.505Z,2560.00
2019-01-19T11:02:10.495Z,2548.00
2019-01-19T11:03:10.484Z,2528.00
2019-01-19T11:04:10.466Z,2516.00
2019-01-19T11:05:10.477Z,2500.00
2019-01-19T11:06:10.447Z,2464.00
2019-01-19T11:07:10.435Z,2432.00
2019-01-19T11:08:10.425Z,2416.00
2019-01-19T11:09:10.634Z,2404.00
2019-01-19T11:10:10.402Z,2396.00
2019-01-19T11:11:10.407Z,2376.00
2019-01-19T11:12:10.414Z,2360.00
2019-01-19T11:13:10.373Z,2332.00
2019-01-19T11:14:10.354Z,2316.00
2019-01-19T11:15:10.338Z,2304.00
2019-01-19T11:16:10.335Z,2272.00
2019-01-19T11:17:10.338Z,2244.00
2019-01-19T11:18:10.308Z,2212.00
2019-01-19T11:19:10.302Z,2216.00
2019-01-19T11:20:10.297Z,2216.00
2019-01-19T11:21:10.283Z,2172.00
2019-01-19T11:22:10.278Z,2156.00
2019-01-19T11:23:10.290Z,2152.00
2019-01-19T11:24:10.247Z,2132.00
2019-01-19T11:25:10.240Z,2116.00
2019-01-19T11:26:10.225Z,2092.00
2019-01-19T11:27:10.215Z,2072.00
2019-01-19T11:28:10.283Z,2052.00
2019-01-19T11:29:10.203Z,2040.00
2019-01-19T11:30:10.181Z,2020.00
2019-01-19T11:31:10.168Z,2020.00
2019-01-19T11:32:10.155Z,2012.00
2019-01-19T11:33:10.166Z,1992.00
2019-01-19T11:34:10.135Z,1984.00
2019-01-19T11:35:10.264Z,1960.00
2019-01-19T11:36:10.132Z,1944.00
2019-01-19T11:37:10.104Z,1928.00
2019-01-19T11:38:12.133Z,1912.00
2019-01-19T11:39:10.087Z,1904.00
2019-01-19T11:40:10.075Z,1888.00
2019-01-19T11:41:10.098Z,1880.00
2019-01-19T11:42:10.091Z,1868.00
2019-01-19T11:43:10.036Z,1844.00
2019-01-19T11:44:10.030Z,1828.00
2019-01-19T11:45:10.025Z,1808.00
2019-01-19T11:46:10.008Z,1796.00
2019-01-19T11:47:10.011Z,1776.00
2019-01-19T11:48:09.982Z,1756.00
2019-01-19T11:49:09.972Z,1748.00
2019-01-19T11:50:09.962Z,1740.00
2019-01-19T11:51:09.953Z,1732.00
2019-01-19T11:52:09.943Z,1716.00
2019-01-19T11:53:09.950Z,1704.00
2019-01-19T11:54:09.916Z,1684.00
2019-01-19T11:55:09.904Z,21440.00
2019-01-19T11:56:12.222Z,24992.00
2019-01-19T11:57:09.917Z,21024.00
2019-01-19T11:58:09.878Z,23968.00
2019-01-19T11:59:09.887Z,21984.00
2019-01-19T12:00:09.846Z,13276.00
2019-01-19T12:01:09.843Z,8104.00
2019-01-19T12:02:09.895Z,8004.00
2019-01-19T12:03:09.820Z,6980.00
2019-01-19T12:04:09.804Z,6112.00
2019-01-19T12:05:09.903Z,5804.00
2019-01-19T12:06:09.785Z,5680.00
2019-01-19T12:07:09.779Z,5524.00
2019-01-19T12:08:09.830Z,5508.00
2019-01-19T12:09:09.750Z,5552.00
2019-01-19T12:10:09.746Z,5560.00
2019-01-19T12:11:09.747Z,5532.00
2019-01-19T12:12:09.725Z,5492.00
2019-01-19T12:13:09.739Z,6312.00
2019-01-19T12:14:09.699Z,8352.00
2019-01-19T12:15:09.693Z,7768.00
2019-01-19T12:16:09.682Z,5668.00
2019-01-19T12:17:09.817Z,5460.00
2019-01-19T12:18:10.934Z,6496.00
2019-01-19T12:19:09.725Z,10108.00
2019-01-19T12:20:09.635Z,10508.00
2019-01-19T12:21:09.625Z,8644.00
2019-01-19T12:22:09.613Z,8888.00
2019-01-19T12:23:09.740Z,11176.00
2019-01-19T12:24:09.594Z,17056.00
2019-01-19T12:25:09.581Z,17344.00
2019-01-19T12:26:09.629Z,18688.00
2019-01-19T12:27:09.558Z,20928.00
2019-01-19T12:28:09.560Z,12704.00
2019-01-19T12:29:09.559Z,11564.00
2019-01-19T12:30:09.533Z,14624.00
2019-01-19T12:31:09.523Z,13284.00
2019-01-19T12:32:09.507Z,11572.00
2019-01-19T12:33:09.501Z,11000.00
2019-01-19T12:34:09.488Z,8452.00
2019-01-19T12:35:09.496Z,12020.00
2019-01-19T12:36:09.469Z,17888.00
2019-01-19T12:37:09.446Z,17728.00
2019-01-19T12:38:09.453Z,12776.00
2019-01-19T12:39:09.765Z,7092.00
2019-01-19T12:40:09.488Z,8692.00
2019-01-19T12:41:09.421Z,8676.00
2019-01-19T12:42:09.398Z,7120.00
2019-01-19T12:43:09.395Z,8616.00
2019-01-19T12:44:10.417Z,9756.00